Time;durP1;ratioP1;P1;durP2;ratioP2;P2;SDS_P1;SDS_P2;PMS_P1;PMS_P2;Temp;Humidity;BMP_temperature;BMP_pressure;BME280_temperature;BME280_humidity;BME280_pressure;Samples;Min_cycle;Max_cycle;Signal;HPM_P1;HPM_P2
2021/07/02 00:00:53;;;;;;;16.70;10.07;;;14.80;99.90;;;;;;4976204;28;20180;-75
2021/07/02 00:03:18;;;;;;;23.27;10.83;;;14.70;99.90;;;;;;4976380;28;20183;-75
2021/07/02 00:05:44;;;;;;;18.57;9.60;;;14.70;99.90;;;;;;4992596;28;20240;-75
2021/07/02 00:08:09;;;;;;;21.47;11.47;;;14.70;99.90;;;;;;4992324;28;20583;-75
2021/07/02 00:10:35;;;;;;;19.17;9.97;;;14.70;99.90;;;;;;4975990;28;20656;-75
2021/07/02 00:13:01;;;;;;;20.17;10.20;;;14.70;99.90;;;;;;4975965;28;20171;-75
2021/07/02 00:15:26;;;;;;;24.17;10.40;;;14.70;99.90;;;;;;4976370;28;20235;-75
2021/07/02 00:17:52;;;;;;;22.53;10.50;;;14.70;99.90;;;;;;4975629;28;20207;-75
2021/07/02 00:20:17;;;;;;;20.27;10.53;;;14.70;99.90;;;;;;4975655;28;20187;-75
2021/07/02 00:22:43;;;;;;;17.73;10.67;;;14.70;99.90;;;;;;4992112;28;20263;-75
2021/07/02 00:25:09;;;;;;;20.13;10.87;;;14.70;99.90;;;;;;4992034;28;20184;-75
2021/07/02 00:27:36;;;;;;;19.93;11.10;;;14.70;99.90;;;;;;4975791;28;20318;-75
2021/07/02 00:30:01;;;;;;;20.13;10.43;;;14.70;99.90;;;;;;4991746;28;20234;-75
2021/07/02 00:32:27;;;;;;;20.27;10.70;;;14.70;99.90;;;;;;4991980;28;20172;-75
2021/07/02 00:34:52;;;;;;;18.20;10.43;;;14.70;99.90;;;;;;4976088;28;20184;-75
2021/07/02 00:37:18;;;;;;;18.73;10.47;;;14.70;99.90;;;;;;4976286;28;20663;-75
2021/07/02 00:39:43;;;;;;;19.70;11.33;;;14.70;99.90;;;;;;4975793;28;20186;-75
2021/07/02 00:42:09;;;;;;;15.83;10.10;;;14.70;99.90;;;;;;4992105;28;20184;-75
2021/07/02 00:44:41;;;;;;;19.80;10.07;;;14.70;99.90;;;;;;4992099;28;20188;-75
2021/07/02 00:47:07;;;;;;;17.80;10.00;;;14.80;99.90;;;;;;4991810;28;20364;-75
2021/07/02 00:49:33;;;;;;;22.27;10.67;;;14.80;99.90;;;;;;4991850;28;20663;-75
2021/07/02 00:52:00;;;;;;;21.50;10.77;;;14.80;99.90;;;;;;4975654;28;20181;-75
2021/07/02 00:54:25;;;;;;;21.33;10.97;;;14.60;99.90;;;;;;4975851;28;20184;-75
2021/07/02 00:56:51;;;;;;;23.77;11.80;;;14.60;99.90;;;;;;4975609;28;20591;-75
2021/07/02 00:59:16;;;;;;;19.33;10.50;;;14.60;99.90;;;;;;4975536;28;20224;-75
2021/07/02 01:01:42;;;;;;;20.60;10.03;;;14.70;99.90;;;;;;4992080;28;20187;-75
2021/07/02 01:04:07;;;;;;;19.80;10.80;;;14.70;99.90;;;;;;4992916;28;20172;-75
2021/07/02 01:06:33;;;;;;;20.70;10.80;;;14.70;99.90;;;;;;4975572;28;20298;-75
2021/07/02 01:08:59;;;;;;;19.07;10.07;;;14.70;99.90;;;;;;4992953;28;20674;-75
2021/07/02 01:11:24;;;;;;;19.87;10.23;;;14.70;99.90;;;;;;4991561;28;20686;-75
2021/07/02 01:13:50;;;;;;;18.10;11.00;;;14.80;99.90;;;;;;4991659;28;20172;-75
2021/07/02 01:16:15;;;;;;;20.70;10.77;;;14.70;99.90;;;;;;4991896;28;20188;-75
2021/07/02 01:18:41;;;;;;;16.90;9.20;;;14.70;99.90;;;;;;4975445;28;20188;-75
2021/07/02 01:21:07;;;;;;;19.30;10.27;;;14.70;99.90;;;;;;4975204;28;20262;-75
2021/07/02 01:23:32;;;;;;;21.03;11.23;;;14.60;99.90;;;;;;4991661;28;20187;-75
2021/07/02 01:25:58;;;;;;;20.53;10.80;;;14.70;99.90;;;;;;4991488;28;20228;-75
2021/07/02 01:28:23;;;;;;;20.07;10.80;;;14.70;99.90;;;;;;4991404;28;20227;-75
2021/07/02 01:30:49;;;;;;;20.23;9.63;;;14.70;99.90;;;;;;4995451;28;20279;-75
2021/07/02 01:33:16;;;;;;;21.17;10.30;;;14.70;99.90;;;;;;4996273;28;20230;-75
2021/07/02 01:35:41;;;;;;;20.43;10.43;;;14.80;99.90;;;;;;4995424;28;20176;-75
2021/07/02 01:38:07;;;;;;;20.87;10.30;;;14.70;99.90;;;;;;4995281;28;20262;-75
2021/07/02 01:40:32;;;;;;;18.37;9.87;;;14.70;99.90;;;;;;4994853;28;20215;-75
2021/07/02 01:42:59;;;;;;;19.70;10.63;;;14.70;99.90;;;;;;4994967;28;20173;-75
2021/07/02 01:45:24;;;;;;;18.30;9.83;;;14.70;99.90;;;;;;4994636;28;20176;-75
2021/07/02 01:47:50;;;;;;;21.80;10.40;;;14.70;99.90;;;;;;4994973;28;20710;-75
2021/07/02 01:50:15;;;;;;;18.17;9.47;;;14.70;99.90;;;;;;4978201;28;20226;-75
2021/07/02 01:52:41;;;;;;;19.80;10.10;;;14.70;99.90;;;;;;4994877;28;20184;-75
2021/07/02 01:55:07;;;;;;;18.43;9.80;;;14.70;99.90;;;;;;4994766;28;20187;-75
2021/07/02 01:57:32;;;;;;;22.53;8.93;;;14.70;99.90;;;;;;4994657;28;20230;-75
2021/07/02 01:59:58;;;;;;;18.87;9.87;;;14.70;99.90;;;;;;4978373;28;20184;-75
2021/07/02 02:02:24;;;;;;;18.37;9.73;;;14.90;99.90;;;;;;4980016;28;20187;-75
2021/07/02 02:04:49;;;;;;;20.73;9.27;;;14.70;99.90;;;;;;4982195;28;20215;-75
2021/07/02 02:07:15;;;;;;;20.37;9.03;;;14.80;99.90;;;;;;4981642;28;20590;-75
2021/07/02 02:09:41;;;;;;;19.13;9.63;;;14.70;99.90;;;;;;4981386;28;20253;-75
2021/07/02 02:12:07;;;;;;;18.27;9.57;;;14.70;99.90;;;;;;4981476;28;20180;-75
2021/07/02 02:14:32;;;;;;;19.20;9.80;;;14.70;99.90;;;;;;4981951;28;20274;-75
2021/07/02 02:16:58;;;;;;;19.87;9.83;;;14.60;99.90;;;;;;4981349;28;20203;-75
2021/07/02 02:19:24;;;;;;;18.53;10.07;;;14.70;99.90;;;;;;4981651;28;20739;-75
2021/07/02 02:21:50;;;;;;;15.90;9.37;;;14.70;99.90;;;;;;5014323;28;20211;-75
2021/07/02 02:24:16;;;;;;;16.93;8.60;;;14.70;99.90;;;;;;4997579;28;20551;-75
2021/07/02 02:26:41;;;;;;;18.33;9.83;;;14.70;99.90;;;;;;4980478;28;20219;-75
2021/07/02 02:29:07;;;;;;;17.67;9.73;;;14.70;99.90;;;;;;4992819;28;20648;-75
2021/07/02 02:31:33;;;;;;;20.07;9.37;;;14.70;99.90;;;;;;4983113;28;20710;-75
2021/07/02 02:33:59;;;;;;;18.10;9.33;;;14.70;99.90;;;;;;4993790;28;20549;-76
2021/07/02 02:36:24;;;;;;;19.00;9.80;;;14.70;99.90;;;;;;4978279;28;20184;-75
2021/07/02 02:38:50;;;;;;;19.07;9.43;;;14.70;99.90;;;;;;4993757;28;20267;-75
2021/07/02 02:41:15;;;;;;;22.27;9.50;;;14.70;99.90;;;;;;4994478;28;20215;-76
2021/07/02 02:43:41;;;;;;;23.93;9.50;;;14.70;99.90;;;;;;4978271;28;20184;-75
2021/07/02 02:46:06;;;;;;;17.70;9.23;;;14.70;99.90;;;;;;4977777;28;20299;-75
2021/07/02 02:48:32;;;;;;;21.33;10.53;;;14.70;99.90;;;;;;4993831;28;20702;-75
2021/07/02 02:50:58;;;;;;;20.57;9.70;;;14.80;99.90;;;;;;4993903;28;20184;-75
2021/07/02 02:53:24;;;;;;;20.93;9.77;;;14.70;99.90;;;;;;4977693;28;20180;-75
2021/07/02 02:55:50;;;;;;;21.07;9.47;;;14.70;99.90;;;;;;4977663;28;20424;-75
2021/07/02 02:58:15;;;;;;;14.10;9.57;;;14.80;99.90;;;;;;4977609;28;20216;-75
2021/07/02 03:00:41;;;;;;;18.07;9.40;;;14.80;99.90;;;;;;4993136;28;20188;-75
2021/07/02 03:03:06;;;;;;;17.80;9.37;;;14.70;99.90;;;;;;4993649;28;20231;-76
2021/07/02 03:05:32;;;;;;;16.87;10.07;;;14.70;99.90;;;;;;4977380;28;20176;-76
2021/07/02 03:07:57;;;;;;;21.03;9.57;;;14.70;99.90;;;;;;4993676;28;20215;-76
2021/07/02 03:10:23;;;;;;;20.00;10.23;;;14.70;99.90;;;;;;4993399;28;20179;-76
2021/07/02 03:12:48;;;;;;;20.33;10.03;;;14.70;99.90;;;;;;4993283;28;20622;-76
2021/07/02 03:15:14;;;;;;;19.73;9.90;;;14.80;99.90;;;;;;4977418;28;20177;-76
2021/07/02 03:17:43;;;;;;;17.60;9.77;;;14.80;99.90;;;;;;4993516;28;20243;-76
2021/07/02 03:20:09;;;;;;;17.37;9.73;;;14.70;99.90;;;;;;4987018;28;20180;-76
2021/07/02 03:22:35;;;;;;;20.43;10.70;;;14.70;99.90;;;;;;5012730;28;20214;-75
2021/07/02 03:25:01;;;;;;;18.73;9.53;;;14.80;99.90;;;;;;5012925;28;20171;-75
2021/07/02 03:27:27;;;;;;;18.93;9.73;;;14.70;99.90;;;;;;5012611;28;20606;-75
2021/07/02 03:29:52;;;;;;;17.73;9.90;;;14.70;99.90;;;;;;4995904;28;20266;-75
2021/07/02 03:32:18;;;;;;;19.17;10.00;;;14.70;99.90;;;;;;5012508;28;20172;-75
2021/07/02 03:34:46;;;;;;;18.00;10.23;;;14.70;99.90;;;;;;4996175;28;20175;-75
2021/07/02 03:37:12;;;;;;;16.77;9.53;;;14.80;99.90;;;;;;4996368;28;20625;-75
2021/07/02 03:39:38;;;;;;;20.97;10.17;;;14.70;99.90;;;;;;4995936;28;20778;-75
2021/07/02 03:42:04;;;;;;;20.53;9.40;;;14.80;99.90;;;;;;4995662;28;20552;-75
2021/07/02 03:44:30;;;;;;;18.37;10.00;;;14.80;99.90;;;;;;5012239;28;20187;-75
2021/07/02 03:46:55;;;;;;;27.37;11.37;;;14.80;99.90;;;;;;4995716;28;20211;-75
2021/07/02 03:49:21;;;;;;;18.43;9.67;;;14.80;99.90;;;;;;5012067;28;20183;-75
2021/07/02 03:51:47;;;;;;;22.17;10.43;;;14.80;99.90;;;;;;4994662;28;20183;-75
2021/07/02 03:54:12;;;;;;;21.27;10.00;;;14.80;99.90;;;;;;4995786;28;20176;-75
2021/07/02 03:56:39;;;;;;;24.97;11.10;;;14.80;99.90;;;;;;5011931;28;20211;-75
2021/07/02 03:59:04;;;;;;;20.60;10.63;;;14.90;99.90;;;;;;5012359;28;20283;-75
2021/07/02 04:01:30;;;;;;;21.47;10.13;;;14.90;99.90;;;;;;5013454;28;20273;-75
2021/07/02 04:03:56;;;;;;;19.47;9.90;;;14.80;99.90;;;;;;5012663;28;20184;-75
2021/07/02 04:06:21;;;;;;;20.00;10.03;;;14.80;99.90;;;;;;4995622;28;20203;-75
2021/07/02 04:08:47;;;;;;;20.50;10.53;;;14.80;99.90;;;;;;5011809;28;20174;-75
2021/07/02 04:11:12;;;;;;;20.23;9.97;;;14.80;99.90;;;;;;4995903;28;20214;-75
2021/07/02 04:13:38;;;;;;;23.23;10.70;;;14.80;99.90;;;;;;5011856;28;20207;-75
2021/07/02 04:16:03;;;;;;;25.93;11.30;;;14.90;99.90;;;;;;4996234;28;20210;-75
2021/07/02 04:18:29;;;;;;;19.43;10.10;;;14.90;99.90;;;;;;5012051;28;20195;-75
2021/07/02 04:20:55;;;;;;;20.23;10.40;;;14.90;99.90;;;;;;5011776;28;20552;-75
2021/07/02 04:23:20;;;;;;;21.83;10.07;;;14.80;99.90;;;;;;4995919;28;20270;-75
2021/07/02 04:25:46;;;;;;;21.57;10.47;;;14.90;99.90;;;;;;5012003;28;20207;-75
2021/07/02 04:28:11;;;;;;;20.83;10.33;;;14.80;99.90;;;;;;4995548;28;20207;-75
2021/07/02 04:30:37;;;;;;;21.17;10.63;;;14.80;99.90;;;;;;5011560;28;20175;-75
2021/07/02 04:33:02;;;;;;;25.93;11.07;;;14.80;99.90;;;;;;4995835;28;20233;-75
2021/07/02 04:35:28;;;;;;;24.10;11.40;;;14.80;99.90;;;;;;5008838;28;20185;-75
2021/07/02 04:37:54;;;;;;;21.47;10.97;;;14.80;99.90;;;;;;5011677;28;20241;-75
2021/07/02 04:40:19;;;;;;;21.00;11.57;;;14.90;99.90;;;;;;5008236;28;20284;-75
2021/07/02 04:42:45;;;;;;;21.60;10.40;;;14.90;99.90;;;;;;4992130;28;20398;-75
2021/07/02 04:45:11;;;;;;;22.90;10.70;;;14.90;99.90;;;;;;4977825;28;20416;-75
2021/07/02 04:47:36;;;;;;;20.67;11.17;;;15.00;99.90;;;;;;4991790;28;20246;-75
2021/07/02 04:50:03;;;;;;;23.10;10.60;;;15.00;99.90;;;;;;5011815;28;20171;-75
2021/07/02 04:52:29;;;;;;;22.60;10.77;;;15.00;99.90;;;;;;4995206;28;20233;-76
2021/07/02 04:54:55;;;;;;;20.97;11.00;;;15.00;99.90;;;;;;4994827;28;20259;-75
2021/07/02 04:57:21;;;;;;;21.10;10.60;;;15.10;99.90;;;;;;5014097;28;20319;-76
2021/07/02 04:59:49;;;;;;;23.83;10.60;;;15.00;99.90;;;;;;5017174;28;20214;-76
2021/07/02 05:02:15;;;;;;;20.20;10.40;;;15.10;99.90;;;;;;5014423;28;20180;-76
2021/07/02 05:04:53;;;;;;;23.07;11.63;;;15.20;99.90;;;;;;5018544;28;20192;-76
2021/07/02 05:07:19;;;;;;;20.67;11.27;;;15.20;99.90;;;;;;5015305;28;20333;-75
2021/07/02 05:10:15;;;;;;;20.97;10.70;;;15.30;99.90;;;;;;5000469;28;20196;-75
2021/07/02 05:12:43;;;;;;;23.03;10.93;;;15.30;99.90;;;;;;5004731;28;20195;-74
2021/07/02 05:15:11;;;;;;;23.40;11.37;;;15.30;99.90;;;;;;5020365;28;20195;-75
2021/07/02 05:17:40;;;;;;;19.00;11.00;;;15.40;99.90;;;;;;5004333;28;20243;-75
2021/07/02 05:20:10;;;;;;;19.00;10.87;;;15.40;99.90;;;;;;5019571;28;20195;-74
2021/07/02 05:22:36;;;;;;;18.30;10.27;;;15.40;99.90;;;;;;5004127;28;20194;-74
2021/07/02 05:25:06;;;;;;;24.10;11.23;;;15.40;99.90;;;;;;5005054;28;20195;-75
2021/07/02 05:27:32;;;;;;;20.07;10.37;;;15.30;99.90;;;;;;5005401;28;20230;-75
2021/07/02 05:29:57;;;;;;;21.40;11.43;;;15.40;99.90;;;;;;5022521;28;20214;-75
2021/07/02 05:32:23;;;;;;;21.97;10.57;;;15.40;99.90;;;;;;5005551;28;20179;-78
2021/07/02 05:34:48;;;;;;;20.50;10.17;;;15.40;99.90;;;;;;5005475;28;20241;-76
2021/07/02 05:37:14;;;;;;;17.50;10.30;;;15.60;99.90;;;;;;5005546;28;20210;-75
2021/07/02 05:39:39;;;;;;;17.30;9.93;;;15.40;99.90;;;;;;5021683;28;20184;-75
2021/07/02 05:42:05;;;;;;;17.67;9.83;;;15.40;99.90;;;;;;5022049;28;20186;-74
2021/07/02 05:44:32;;;;;;;18.60;10.17;;;15.50;99.90;;;;;;5022883;28;20306;-76
2021/07/02 05:46:57;;;;;;;24.90;10.53;;;15.50;99.90;;;;;;4998545;28;20235;-77
2021/07/02 05:49:23;;;;;;;19.53;10.33;;;15.60;99.90;;;;;;5000076;28;20176;-75
2021/07/02 05:51:49;;;;;;;15.47;10.03;;;15.50;99.90;;;;;;5004360;28;20231;-75
2021/07/02 05:54:14;;;;;;;14.70;9.50;;;15.50;99.90;;;;;;5001008;28;20240;-75
2021/07/02 05:56:40;;;;;;;16.57;9.47;;;15.60;99.90;;;;;;5005963;28;20637;-75
2021/07/02 05:59:05;;;;;;;17.93;9.30;;;15.60;99.90;;;;;;5004452;28;20184;-76
2021/07/02 06:01:31;;;;;;;19.63;10.47;;;15.80;99.90;;;;;;4995524;28;20189;-75
2021/07/02 06:03:57;;;;;;;17.13;9.80;;;15.80;99.90;;;;;;4990603;28;20184;-76
2021/07/02 06:06:22;;;;;;;16.63;9.37;;;15.80;99.90;;;;;;4988933;28;20208;-77
2021/07/02 06:08:50;;;;;;;17.60;9.10;;;15.90;99.90;;;;;;5001810;28;20173;-76
2021/07/02 06:11:15;;;;;;;18.10;8.73;;;15.90;99.90;;;;;;5002627;28;20702;-76
2021/07/02 06:13:41;;;;;;;17.33;9.07;;;16.00;99.90;;;;;;5015718;28;20177;-75
2021/07/02 06:16:07;;;;;;;14.30;8.90;;;16.00;99.90;;;;;;4994633;28;20196;-75
2021/07/02 06:18:36;;;;;;;17.97;8.63;;;16.20;99.90;;;;;;4982211;28;20292;-75
2021/07/02 06:21:04;;;;;;;12.70;8.37;;;16.20;99.90;;;;;;4999197;28;20189;-76
2021/07/02 06:23:33;;;;;;;15.83;8.37;;;16.20;99.90;;;;;;5015423;28;20189;-75
2021/07/02 06:25:59;;;;;;;14.37;8.50;;;16.50;99.90;;;;;;4983793;28;20216;-76
2021/07/02 06:28:27;;;;;;;14.80;6.97;;;16.40;99.90;;;;;;4983470;28;20263;-75
2021/07/02 06:30:53;;;;;;;13.77;8.13;;;16.40;99.90;;;;;;4996492;28;20183;-76
2021/07/02 06:33:19;;;;;;;12.53;7.70;;;16.40;99.90;;;;;;4996887;28;20172;-76
2021/07/02 06:35:44;;;;;;;13.93;8.13;;;16.50;99.90;;;;;;4995667;28;20192;-76
2021/07/02 06:38:10;;;;;;;15.47;7.67;;;16.50;99.90;;;;;;4980307;28;20200;-77
2021/07/02 06:40:39;;;;;;;12.70;6.77;;;16.50;99.90;;;;;;5002641;28;20185;-75
2021/07/02 06:43:16;;;;;;;11.13;7.13;;;16.70;99.90;;;;;;5013534;28;20547;-76
2021/07/02 06:45:41;;;;;;;13.10;6.63;;;16.80;99.90;;;;;;5002440;28;20188;-75
2021/07/02 06:48:07;;;;;;;11.03;6.93;;;16.80;99.90;;;;;;4998168;28;20587;-75
2021/07/02 06:51:02;;;;;;;13.30;7.97;;;16.80;99.90;;;;;;4999916;28;20188;-75
2021/07/02 06:53:31;;;;;;;12.87;7.03;;;16.50;99.90;;;;;;5016026;28;20198;-75
2021/07/02 06:56:07;;;;;;;10.90;7.20;;;16.20;99.90;;;;;;5004957;28;20199;-75
2021/07/02 06:59:16;;;;;;;12.30;7.20;;;16.10;99.90;;;;;;5004278;28;20196;-75
2021/07/02 07:01:52;;;;;;;11.77;7.43;;;16.10;99.90;;;;;;5022833;28;20195;-76
2021/07/02 07:04:19;;;;;;;12.83;7.73;;;16.00;99.90;;;;;;5007028;28;20176;-76
2021/07/02 07:06:49;;;;;;;9.70;6.60;;;16.20;99.90;;;;;;5005589;28;20230;-76
2021/07/02 07:09:17;;;;;;;11.13;6.43;;;16.20;99.90;;;;;;5019355;28;20180;-76
2021/07/02 07:11:43;;;;;;;12.07;6.60;;;16.20;99.90;;;;;;5001661;28;20187;-78
2021/07/02 07:14:08;;;;;;;8.67;5.97;;;16.30;99.90;;;;;;4997596;28;20206;-76
2021/07/02 07:16:34;;;;;;;12.50;6.43;;;16.40;99.90;;;;;;4981267;28;20236;-78
2021/07/02 07:18:59;;;;;;;9.60;6.70;;;16.50;99.90;;;;;;4992899;28;20302;-76
2021/07/02 07:21:25;;;;;;;9.17;6.10;;;16.60;99.90;;;;;;4992784;28;20263;-77
2021/07/02 07:23:50;;;;;;;9.77;6.30;;;16.80;99.90;;;;;;4992482;28;20278;-76
2021/07/02 07:26:17;;;;;;;11.53;5.50;;;16.80;99.90;;;;;;4992650;28;20295;-77
2021/07/02 07:28:43;;;;;;;10.30;6.10;;;17.00;99.90;;;;;;4994073;28;20612;-77
2021/07/02 07:31:09;;;;;;;10.27;6.30;;;17.30;99.90;;;;;;4992815;28;20668;-77
2021/07/02 07:33:38;;;;;;;14.13;6.80;;;17.30;99.90;;;;;;4992893;28;20203;-77
2021/07/02 07:36:04;;;;;;;11.17;6.63;;;17.50;99.90;;;;;;4994425;28;20171;-77
2021/07/02 07:38:30;;;;;;;13.57;6.83;;;17.40;99.90;;;;;;4978009;28;20197;-77
2021/07/02 07:40:55;;;;;;;12.20;6.73;;;17.40;99.90;;;;;;4978883;28;20223;-77
2021/07/02 07:43:24;;;;;;;11.53;6.47;;;17.30;99.90;;;;;;4994350;28;20180;-74
2021/07/02 07:45:49;;;;;;;11.20;6.80;;;17.20;99.90;;;;;;4977641;28;20180;-77
2021/07/02 07:48:15;;;;;;;9.37;6.30;;;17.10;99.90;;;;;;4996201;28;20275;-76
2021/07/02 07:50:43;;;;;;;12.63;6.77;;;17.20;99.90;;;;;;4995325;28;20196;-76
2021/07/02 07:53:27;;;;;;;10.63;6.53;;;17.10;99.90;;;;;;4979524;28;20640;-76
2021/07/02 07:55:53;;;;;;;12.60;7.17;;;17.10;99.90;;;;;;4979252;28;20223;-76
2021/07/02 07:58:18;;;;;;;10.73;6.20;;;17.00;99.90;;;;;;4978938;28;20208;-76
2021/07/02 08:00:44;;;;;;;10.57;6.23;;;17.00;99.90;;;;;;4995688;28;20183;-76
2021/07/02 08:03:10;;;;;;;11.17;6.33;;;17.00;99.90;;;;;;4976990;28;20582;-76
2021/07/02 08:05:35;;;;;;;9.27;6.30;;;17.10;99.90;;;;;;4992021;28;20554;-76
2021/07/02 08:08:01;;;;;;;9.87;5.50;;;16.90;99.90;;;;;;4975421;28;20725;-75
2021/07/02 08:10:26;;;;;;;9.67;5.87;;;17.00;99.90;;;;;;4991711;28;20177;-75
2021/07/02 08:12:52;;;;;;;9.97;5.73;;;17.10;99.90;;;;;;4991827;28;20243;-75
2021/07/02 08:15:18;;;;;;;8.70;5.20;;;17.00;99.90;;;;;;4992981;28;20661;-75
2021/07/02 08:17:44;;;;;;;10.47;5.67;;;17.10;99.90;;;;;;4991818;28;20660;-76
2021/07/02 08:20:10;;;;;;;7.20;5.53;;;17.10;99.90;;;;;;4975238;28;20184;-76
2021/07/02 08:22:35;;;;;;;9.73;5.63;;;17.00;99.90;;;;;;4975330;28;20230;-76
2021/07/02 08:25:01;;;;;;;10.33;5.33;;;16.90;99.90;;;;;;4975398;28;20184;-76
2021/07/02 08:27:28;;;;;;;7.53;5.03;;;16.80;99.90;;;;;;4975227;28;20212;-76
2021/07/02 08:29:53;;;;;;;10.87;5.17;;;16.80;99.90;;;;;;4991318;28;20200;-76
2021/07/02 08:32:19;;;;;;;8.20;5.47;;;17.00;99.90;;;;;;4990692;28;20210;-76
2021/07/02 08:34:45;;;;;;;8.00;4.93;;;17.00;99.90;;;;;;4996907;28;20643;-76
2021/07/02 08:37:11;;;;;;;7.50;4.67;;;17.20;99.90;;;;;;5015771;28;20698;-75
2021/07/02 08:39:36;;;;;;;8.57;5.33;;;17.20;99.90;;;;;;5000317;28;20174;-76
2021/07/02 08:42:02;;;;;;;7.33;4.70;;;17.20;99.90;;;;;;5022315;28;20722;-76
2021/07/02 08:44:28;;;;;;;8.43;4.70;;;17.10;99.90;;;;;;5006909;28;20179;-75
2021/07/02 08:46:54;;;;;;;9.93;5.30;;;17.10;99.90;;;;;;5014850;28;20570;-76
2021/07/02 08:49:19;;;;;;;7.93;5.03;;;17.20;99.90;;;;;;5010010;28;20175;-76
2021/07/02 08:51:45;;;;;;;7.77;4.87;;;17.10;99.90;;;;;;5000554;28;20651;-76
2021/07/02 08:54:17;;;;;;;9.37;4.97;;;17.20;99.90;;;;;;5004045;28;20261;-78
2021/07/02 08:56:55;;;;;;;7.43;5.33;;;17.20;99.90;;;;;;5014794;28;20195;-78
2021/07/02 08:59:24;;;;;;;9.83;5.03;;;17.40;99.90;;;;;;5015645;28;20187;-78
2021/07/02 09:01:50;;;;;;;8.80;5.27;;;17.50;99.90;;;;;;4998119;28;20179;-78
2021/07/02 09:04:30;;;;;;;10.43;5.30;;;17.70;99.90;;;;;;5013969;28;20193;-78
2021/07/02 09:06:59;;;;;;;11.33;5.83;;;17.90;99.90;;;;;;5030213;28;20289;-78
2021/07/02 09:09:26;;;;;;;8.47;5.67;;;18.00;99.90;;;;;;5029891;28;20175;-78
2021/07/02 09:11:51;;;;;;;13.33;6.13;;;18.20;99.90;;;;;;5013955;28;20620;-78
2021/07/02 09:14:22;;;;;;;8.30;5.30;;;18.30;99.90;;;;;;5013886;28;20187;-78
2021/07/02 09:16:48;;;;;;;9.47;5.47;;;18.50;99.90;;;;;;4997569;28;20678;-78
2021/07/02 09:19:24;;;;;;;10.47;5.60;;;18.50;99.90;;;;;;5026942;28;20187;-77
2021/07/02 09:21:50;;;;;;;11.70;5.50;;;18.20;99.90;;;;;;5010670;28;20651;-77
2021/07/02 09:24:35;;;;;;;8.03;5.20;;;18.10;99.90;;;;;;4994570;28;20719;-76
2021/07/02 09:27:00;;;;;;;8.83;5.07;;;18.10;99.90;;;;;;4994351;28;20227;-75
2021/07/02 09:29:26;;;;;;;8.30;4.90;;;18.10;99.90;;;;;;5010514;28;20531;-74
2021/07/02 09:31:59;;;;;;;9.90;5.17;;;18.20;99.90;;;;;;4977743;28;20720;-76
2021/07/02 09:34:50;;;;;;;7.73;4.37;;;18.70;99.90;;;;;;5004456;28;20172;-75
2021/07/02 09:37:24;;;;;;;7.00;4.13;;;19.00;99.90;;;;;;4997703;28;20208;-76
2021/07/02 09:39:50;;;;;;;5.97;4.17;;;19.10;99.90;;;;;;5010471;28;20544;-76
2021/07/02 09:42:22;;;;;;;6.53;4.63;;;19.30;99.90;;;;;;4986170;28;20181;-75
2021/07/02 09:45:08;;;;;;;8.03;4.27;;;19.50;99.90;;;;;;4997010;28;20212;-76
2021/07/02 09:47:34;;;;;;;7.10;4.07;;;19.90;99.90;;;;;;4983185;28;20203;-76
2021/07/02 09:50:13;;;;;;;6.27;3.67;;;20.00;99.90;;;;;;4980550;28;20215;-76
2021/07/02 09:53:08;;;;;;;5.43;3.60;;;20.30;99.90;;;;;;5007378;28;20707;-76
2021/07/02 09:55:35;;;;;;;6.60;4.10;;;20.40;99.90;;;;;;5008241;28;20235;-76
2021/07/02 09:58:09;;;;;;;7.33;4.00;;;20.20;99.90;;;;;;5009073;28;20215;-76
2021/07/02 10:00:39;;;;;;;5.50;3.77;;;20.10;99.90;;;;;;4978559;28;20186;-78
2021/07/02 10:03:06;;;;;;;5.40;3.70;;;20.00;99.90;;;;;;5013031;28;20171;-76
2021/07/02 10:05:42;;;;;;;7.67;4.47;;;20.00;99.90;;;;;;5014650;28;20237;-76
2021/07/02 10:08:08;;;;;;;8.07;4.77;;;19.90;99.90;;;;;;4985905;28;20218;-76
2021/07/02 10:10:33;;;;;;;6.23;3.90;;;20.00;99.90;;;;;;5015688;28;20206;-76
2021/07/02 10:12:59;;;;;;;8.30;4.67;;;20.00;99.90;;;;;;4998330;28;20210;-79
2021/07/02 10:15:25;;;;;;;7.50;4.63;;;20.00;99.90;;;;;;4975816;28;20263;-76
2021/07/02 10:17:53;;;;;;;8.27;3.93;;;19.90;99.90;;;;;;5006916;28;20686;-75
2021/07/02 10:20:19;;;;;;;6.40;3.50;;;19.80;99.90;;;;;;5011529;28;20211;-76
2021/07/02 10:22:45;;;;;;;8.07;3.83;;;19.80;99.90;;;;;;4996710;28;20631;-76
2021/07/02 10:25:11;;;;;;;7.60;3.70;;;19.80;99.90;;;;;;5014649;28;20186;-75
2021/07/02 10:27:38;;;;;;;6.17;4.03;;;20.00;99.90;;;;;;5000403;28;20749;-75
2021/07/02 10:30:04;;;;;;;5.17;3.87;;;19.90;99.90;;;;;;5011650;28;20187;-75
2021/07/02 10:32:31;;;;;;;6.33;4.20;;;19.90;99.90;;;;;;5013820;28;20207;-75
2021/07/02 10:34:56;;;;;;;7.17;4.57;;;20.10;99.90;;;;;;5001185;28;20183;-75
2021/07/02 10:37:24;;;;;;;7.07;4.57;;;20.20;99.90;;;;;;4996235;28;20217;-76
2021/07/02 10:39:49;;;;;;;5.17;3.50;;;20.20;99.90;;;;;;4995389;28;20211;-75
2021/07/02 10:42:15;;;;;;;7.93;3.80;;;20.10;99.90;;;;;;5010681;28;21654;-75
2021/07/02 10:45:07;;;;;;;5.80;3.47;;;20.10;99.90;;;;;;5012455;28;20191;-75
2021/07/02 10:47:47;;;;;;;4.77;3.20;;;20.00;99.90;;;;;;4993733;28;20229;-75
2021/07/02 10:50:42;;;;;;;4.50;2.90;;;20.10;99.90;;;;;;4996839;28;20203;-75
2021/07/02 10:53:24;;;;;;;5.60;3.30;;;20.20;99.90;;;;;;5012854;28;20255;-76
2021/07/02 10:55:50;;;;;;;4.50;2.87;;;20.40;99.90;;;;;;4996699;28;20707;-75
2021/07/02 10:58:15;;;;;;;5.63;3.30;;;20.60;99.90;;;;;;5015019;28;20211;-75
2021/07/02 11:01:09;;;;;;;4.30;3.17;;;20.50;99.90;;;;;;4995532;28;20187;-77
2021/07/02 11:03:35;;;;;;;4.73;2.73;;;20.50;99.90;;;;;;5012072;28;20546;-77
2021/07/02 11:06:32;;;;;;;4.10;2.43;;;20.50;99.90;;;;;;4996648;28;20179;-77
2021/07/02 11:08:58;;;;;;;4.23;2.90;;;20.50;99.90;;;;;;5010059;28;20211;-77
2021/07/02 11:11:24;;;;;;;5.57;2.80;;;20.60;99.90;;;;;;4994107;28;20215;-77
2021/07/02 11:14:06;;;;;;;3.17;2.43;;;20.60;99.90;;;;;;4988067;28;20651;-77
2021/07/02 11:16:31;;;;;;;4.00;2.47;;;20.50;99.90;;;;;;4987907;28;20668;-77
2021/07/02 11:18:57;;;;;;;3.90;2.83;;;20.50;99.90;;;;;;5014979;28;20258;-77
2021/07/02 11:21:22;;;;;;;6.53;2.93;;;20.30;99.90;;;;;;4997745;28;20189;-77
2021/07/02 11:23:48;;;;;;;4.43;3.10;;;20.20;99.90;;;;;;4987392;28;20706;-75
2021/07/02 11:26:39;;;;;;;7.03;3.40;;;20.10;99.90;;;;;;4998534;28;20180;-77
2021/07/02 11:29:04;;;;;;;5.73;2.77;;;20.00;99.90;;;;;;4992058;28;20575;-78
2021/07/02 11:31:34;;;;;;;2.97;2.30;;;20.10;99.90;;;;;;4992200;28;20222;-76
2021/07/02 11:34:11;;;;;;;3.93;2.77;;;20.10;99.90;;;;;;4992167;28;20259;-77
2021/07/02 11:36:36;;;;;;;5.23;2.60;;;20.20;99.90;;;;;;4991837;28;20204;-77
2021/07/02 11:39:02;;;;;;;3.30;2.10;;;20.40;99.90;;;;;;5008372;28;20191;-77
2021/07/02 11:41:30;;;;;;;5.27;3.10;;;20.30;99.90;;;;;;4976210;28;20214;-78
2021/07/02 11:43:56;;;;;;;2.97;2.47;;;20.50;99.90;;;;;;4976019;28;20226;-77
2021/07/02 11:46:22;;;;;;;4.30;2.70;;;20.70;99.90;;;;;;5011663;28;20242;-77
2021/07/02 11:48:49;;;;;;;3.33;2.47;;;20.90;99.90;;;;;;4966946;28;20176;-77
2021/07/02 11:51:23;;;;;;;3.60;2.57;;;20.90;99.90;;;;;;4996381;28;20176;-76
2021/07/02 11:54:02;;;;;;;5.70;2.93;;;21.10;99.90;;;;;;4995467;28;20175;-77
2021/07/02 11:56:29;;;;;;;6.17;2.30;;;21.20;99.90;;;;;;4995912;28;20233;-77
2021/07/02 11:58:59;;;;;;;3.57;2.43;;;21.40;99.90;;;;;;5001884;28;20577;-77
2021/07/02 12:01:37;;;;;;;6.20;2.53;;;21.50;99.90;;;;;;5003279;28;20201;-76
2021/07/02 12:04:04;;;;;;;3.70;2.10;;;21.60;99.90;;;;;;5000594;28;20179;-75
2021/07/02 12:06:34;;;;;;;4.03;2.20;;;21.40;99.90;;;;;;4985700;28;20238;-76
2021/07/02 12:09:10;;;;;;;3.87;2.03;;;21.50;99.90;;;;;;5001113;28;20177;-77
2021/07/02 12:11:40;;;;;;;3.20;2.20;;;21.40;99.90;;;;;;4980803;28;20187;-74
2021/07/02 12:14:10;;;;;;;2.30;1.67;;;21.50;99.90;;;;;;4989804;28;20175;-73
2021/07/02 12:16:36;;;;;;;3.83;2.17;;;21.50;99.90;;;;;;5012974;28;20207;-75
2021/07/02 12:19:03;;;;;;;5.30;2.13;;;21.60;99.90;;;;;;4994882;28;20274;-75
2021/07/02 12:21:29;;;;;;;3.60;2.23;;;21.70;99.90;;;;;;5006298;28;20334;-76
2021/07/02 12:23:56;;;;;;;4.47;2.23;;;21.50;99.90;;;;;;5011022;28;20719;-75
2021/07/02 12:26:25;;;;;;;3.87;1.87;;;21.50;99.90;;;;;;5017171;28;20206;-76
2021/07/02 12:29:00;;;;;;;2.23;1.77;;;21.40;99.90;;;;;;4997993;28;20266;-75
2021/07/02 12:31:33;;;;;;;3.20;1.60;;;21.40;99.90;;;;;;5021844;28;20171;-75
2021/07/02 12:33:59;;;;;;;3.93;1.80;;;21.40;99.90;;;;;;5011069;28;20174;-75
2021/07/02 12:36:25;;;;;;;2.23;2.03;;;21.50;99.90;;;;;;4994788;28;20635;-75
2021/07/02 12:39:10;;;;;;;2.77;2.20;;;21.70;99.90;;;;;;5011461;28;20191;-75
2021/07/02 12:41:39;;;;;;;3.80;2.47;;;21.70;99.90;;;;;;5006026;28;20180;-75